createdAt,value
2023-03-03T00:00:02.393Z,29.30
2023-03-03T00:02:40.299Z,27.73
2023-03-03T00:05:15.462Z,23.98
2023-03-03T00:07:44.964Z,25.58
2023-03-03T00:10:13.067Z,31.25
2023-03-03T00:12:48.438Z,33.50
2023-03-03T00:15:17.944Z,32.17
2023-03-03T00:17:46.437Z,34.75
2023-03-03T00:20:41.128Z,29.75
2023-03-03T00:23:20.478Z,37.20
2023-03-03T00:25:51.901Z,34.28
2023-03-03T00:28:25.888Z,37.30
2023-03-03T00:30:55.299Z,33.67
2023-03-03T00:33:33.144Z,37.03
2023-03-03T00:36:23.079Z,33.17
2023-03-03T00:38:51.182Z,29.23
2023-03-03T00:41:24.193Z,32.47
2023-03-03T00:43:52.967Z,31.92
2023-03-03T00:46:22.635Z,28.73
2023-03-03T00:48:51.655Z,32.35
2023-03-03T00:51:29.086Z,29.13
2023-03-03T00:53:58.271Z,35.30
2023-03-03T00:56:26.507Z,36.40
2023-03-03T00:58:54.979Z,39.72
2023-03-03T01:01:25.593Z,36.13
2023-03-03T01:03:55.181Z,32.20
2023-03-03T01:06:24.834Z,32.20
2023-03-03T01:08:52.941Z,30.55
2023-03-03T01:11:24.987Z,31.85
2023-03-03T01:13:54.611Z,37.40
2023-03-03T01:16:23.030Z,33.58
2023-03-03T01:18:51.869Z,33.58
2023-03-03T01:21:19.773Z,24.83
2023-03-03T01:23:49.065Z,28.60
2023-03-03T01:26:17.038Z,27.70
2023-03-03T01:28:45.106Z,28.35
2023-03-03T01:31:13.638Z,29.75
2023-03-03T01:33:41.559Z,25.38
2023-03-03T01:36:09.631Z,28.65
2023-03-03T01:38:38.417Z,30.30
2023-03-03T01:41:07.817Z,28.38
2023-03-03T01:43:35.934Z,31.52
2023-03-03T01:46:47.767Z,31.38
2023-03-03T01:49:20.475Z,27.77
2023-03-03T01:51:51.979Z,26.90
2023-03-03T01:54:25.159Z,30.10
2023-03-03T01:59:29.849Z,30.95
2023-03-03T02:01:57.831Z,27.73
2023-03-03T02:04:26.505Z,31.42
2023-03-03T02:06:59.217Z,28.95
2023-03-03T02:09:35.145Z,25.75
2023-03-03T02:12:08.147Z,27.25
2023-03-03T02:14:36.314Z,32.08
2023-03-03T02:17:04.437Z,30.15
2023-03-03T02:19:40.746Z,28.42
2023-03-03T02:22:08.922Z,24.88
2023-03-03T02:24:43.467Z,32.50
2023-03-03T02:27:14.075Z,27.50
2023-03-03T02:29:43.639Z,30.17
2023-03-03T02:32:12.434Z,26.50
2023-03-03T02:34:51.149Z,24.30
2023-03-03T02:37:20.559Z,27.08
2023-03-03T02:39:48.697Z,29.45
2023-03-03T02:42:24.102Z,25.80
2023-03-03T02:44:55.560Z,29.88
2023-03-03T02:47:23.481Z,26.10
2023-03-03T02:49:51.411Z,26.67
2023-03-03T02:52:19.397Z,28.05
2023-03-03T02:54:48.462Z,29.00
2023-03-03T02:57:16.412Z,32.15
2023-03-03T02:59:45.673Z,26.02
2023-03-03T03:02:19.323Z,30.00
2023-03-03T03:04:47.751Z,27.90
2023-03-03T03:07:19.951Z,25.33
2023-03-03T03:09:47.885Z,26.63
2023-03-03T03:12:16.045Z,30.30
2023-03-03T03:14:45.985Z,28.25
2023-03-03T03:17:14.698Z,29.48
2023-03-03T03:19:44.689Z,31.90
2023-03-03T03:22:12.808Z,26.40
2023-03-03T03:24:40.749Z,28.13
2023-03-03T03:27:10.438Z,30.02
2023-03-03T03:29:38.428Z,29.48
2023-03-03T03:32:08.505Z,31.73
2023-03-03T03:34:36.916Z,34.55
2023-03-03T03:37:05.648Z,35.83
2023-03-03T03:39:34.539Z,31.40
2023-03-03T03:42:02.588Z,30.83
2023-03-03T03:44:30.788Z,32.30
2023-03-03T03:46:58.681Z,29.80
2023-03-03T03:49:28.598Z,24.88
2023-03-03T03:51:58.637Z,31.98
2023-03-03T03:54:29.823Z,28.48
2023-03-03T03:56:58.256Z,30.40
2023-03-03T03:59:27.978Z,25.55
2023-03-03T04:01:56.010Z,34.13
2023-03-03T04:04:25.240Z,27.08
2023-03-03T04:06:55.531Z,27.30
2023-03-03T04:09:23.625Z,27.52
2023-03-03T04:11:51.509Z,27.10
2023-03-03T04:14:19.679Z,29.77
2023-03-03T04:16:47.616Z,30.20
2023-03-03T04:19:15.565Z,35.55
2023-03-03T04:21:44.239Z,30.80
2023-03-03T04:24:13.581Z,32.70
2023-03-03T04:26:41.916Z,31.83
2023-03-03T04:29:11.678Z,33.33
2023-03-03T04:31:41.249Z,31.25
2023-03-03T04:34:10.965Z,27.35
2023-03-03T04:36:39.882Z,31.75
2023-03-03T04:39:08.083Z,31.20
2023-03-03T04:41:37.409Z,31.20
2023-03-03T04:44:05.613Z,41.55
2023-03-03T04:46:33.760Z,35.97
2023-03-03T04:49:03.868Z,36.47
2023-03-03T04:51:32.709Z,44.30
2023-03-03T04:54:00.629Z,42.88
2023-03-03T04:56:31.721Z,43.80
2023-03-03T04:59:01.076Z,47.90
2023-03-03T05:01:29.504Z,42.08
2023-03-03T05:03:57.595Z,49.17
2023-03-03T05:06:25.659Z,42.33
2023-03-03T05:08:53.625Z,41.40
2023-03-03T05:11:21.721Z,45.75
2023-03-03T05:13:49.559Z,47.13
2023-03-03T05:16:18.819Z,42.65
2023-03-03T05:18:47.477Z,47.10
2023-03-03T05:21:15.512Z,48.85
2023-03-03T05:23:43.446Z,56.92
2023-03-03T05:26:11.707Z,51.47
2023-03-03T05:28:39.588Z,50.60
2023-03-03T05:31:07.531Z,47.88
2023-03-03T05:33:36.926Z,45.67
2023-03-03T05:36:05.244Z,41.85
2023-03-03T05:38:33.093Z,43.05
2023-03-03T05:41:00.961Z,45.80
2023-03-03T05:43:29.280Z,44.03
2023-03-03T05:45:57.687Z,45.35
2023-03-03T05:48:25.746Z,46.08
2023-03-03T05:50:55.044Z,40.75
2023-03-03T05:53:22.897Z,45.05
2023-03-03T05:55:50.816Z,40.22
2023-03-03T05:58:18.672Z,42.53
2023-03-03T06:00:46.564Z,45.72
2023-03-03T06:03:14.482Z,46.72
2023-03-03T06:05:42.363Z,50.15
2023-03-03T06:08:11.619Z,44.95
2023-03-03T06:10:39.475Z,45.03
2023-03-03T06:13:09.968Z,47.42
2023-03-03T06:15:38.140Z,45.25
2023-03-03T06:18:06.209Z,49.28
2023-03-03T06:20:35.392Z,42.33
2023-03-03T06:23:03.333Z,39.67
2023-03-03T06:25:35.654Z,33.28
2023-03-03T06:28:03.729Z,35.80
2023-03-03T06:30:31.726Z,38.20
2023-03-03T06:32:59.586Z,41.22
2023-03-03T06:35:28.652Z,36.65
2023-03-03T06:37:56.587Z,47.70
2023-03-03T06:40:24.486Z,46.00
2023-03-03T06:42:53.743Z,44.80
2023-03-03T06:45:21.589Z,53.90
2023-03-03T06:47:49.564Z,56.58
2023-03-03T06:50:21.361Z,49.47
2023-03-03T06:52:49.270Z,45.53
2023-03-03T06:55:23.681Z,54.47
2023-03-03T06:57:55.836Z,52.50
2023-03-03T07:00:29.536Z,45.17
2023-03-03T07:03:02.758Z,45.58
2023-03-03T07:05:30.842Z,47.83
2023-03-03T07:07:58.881Z,52.95
2023-03-03T07:10:28.728Z,63.10
2023-03-03T07:13:03.244Z,48.92
2023-03-03T07:15:36.374Z,48.42
2023-03-03T07:20:39.909Z,54.20
2023-03-03T07:23:20.159Z,54.72
2023-03-03T07:25:48.585Z,53.13
2023-03-03T07:28:24.033Z,52.88
2023-03-03T07:30:52.184Z,52.25
2023-03-03T07:33:26.595Z,51.75
2023-03-03T07:35:56.365Z,59.80
2023-03-03T07:38:32.626Z,57.97
2023-03-03T07:41:02.996Z,64.13
2023-03-03T07:43:36.503Z,61.33
2023-03-03T07:46:22.889Z,61.50
2023-03-03T07:48:51.987Z,52.28
2023-03-03T07:51:25.303Z,52.92
2023-03-03T07:53:55.019Z,67.07
2023-03-03T07:56:30.482Z,57.80
2023-03-03T07:58:59.922Z,56.17
2023-03-03T08:01:40.816Z,66.22
2023-03-03T08:04:18.329Z,63.33
2023-03-03T08:06:49.465Z,59.25
2023-03-03T08:09:40.778Z,61.58
2023-03-03T08:12:36.162Z,65.15
2023-03-03T08:15:21.135Z,63.88
2023-03-03T08:17:50.472Z,57.08
2023-03-03T08:20:46.448Z,55.47
2023-03-03T08:23:15.959Z,46.83
2023-03-03T08:25:44.699Z,44.55
2023-03-03T08:28:14.065Z,53.33
2023-03-03T08:30:44.503Z,42.08
2023-03-03T08:33:12.982Z,44.70
2023-03-03T08:35:42.153Z,33.72
2023-03-03T08:38:10.770Z,32.85
2023-03-03T08:40:38.992Z,35.72
2023-03-03T08:43:07.016Z,39.53
2023-03-03T08:45:35.689Z,43.40
2023-03-03T08:48:06.257Z,40.40
2023-03-03T08:50:34.803Z,38.15
2023-03-03T08:53:02.715Z,31.20
2023-03-03T08:55:30.742Z,35.75
2023-03-03T08:57:58.866Z,34.50
2023-03-03T09:00:27.561Z,40.97
2023-03-03T09:02:55.884Z,33.70
2023-03-03T09:05:25.882Z,41.33
2023-03-03T09:07:54.316Z,44.55
2023-03-03T09:10:29.329Z,42.10
2023-03-03T09:13:01.248Z,52.08
2023-03-03T09:15:30.935Z,54.50
2023-03-03T09:18:00.459Z,59.05
2023-03-03T09:20:38.384Z,45.80
2023-03-03T09:23:29.993Z,36.20
2023-03-03T09:25:58.638Z,33.83
2023-03-03T09:28:29.186Z,31.25
2023-03-03T09:31:01.151Z,40.53
2023-03-03T09:33:33.423Z,45.35
2023-03-03T09:36:13.652Z,48.97
2023-03-03T09:38:45.710Z,46.65
2023-03-03T09:41:51.768Z,39.90
2023-03-03T09:44:41.994Z,49.53
2023-03-03T09:47:29.849Z,44.83
2023-03-03T09:50:10.283Z,37.83
2023-03-03T09:52:47.530Z,40.65
2023-03-03T09:55:30.247Z,40.58
2023-03-03T09:58:15.154Z,33.93
2023-03-03T10:00:56.116Z,28.88
2023-03-03T10:03:46.429Z,32.90
2023-03-03T10:06:26.081Z,33.65
2023-03-03T10:09:07.844Z,31.38
2023-03-03T10:11:45.733Z,28.08
2023-03-03T10:14:50.530Z,25.25
2023-03-03T10:17:31.579Z,32.50
2023-03-03T10:20:13.589Z,38.78
2023-03-03T10:22:51.810Z,32.22
2023-03-03T10:25:30.179Z,31.25
2023-03-03T10:28:09.462Z,23.50
2023-03-03T10:31:02.511Z,20.40
2023-03-03T10:33:42.769Z,20.35
2023-03-03T10:36:46.584Z,21.58
2023-03-03T10:39:30.421Z,19.13
2023-03-03T10:42:12.051Z,31.38
2023-03-03T10:44:58.939Z,28.08
2023-03-03T10:47:41.605Z,20.23
2023-03-03T10:50:22.224Z,20.97
2023-03-03T10:52:56.227Z,21.90
2023-03-03T10:55:39.360Z,19.92
2023-03-03T11:00:57.590Z,24.10
2023-03-03T11:03:43.289Z,27.70
2023-03-03T11:06:19.920Z,45.90
2023-03-03T11:08:53.913Z,44.38
2023-03-03T11:11:30.403Z,44.28
2023-03-03T11:14:10.278Z,44.53
2023-03-03T11:16:49.086Z,46.97
2023-03-03T11:19:36.835Z,36.30
2023-03-03T11:22:14.848Z,31.35
2023-03-03T11:24:54.217Z,29.52
2023-03-03T11:27:44.693Z,40.67
2023-03-03T11:30:34.551Z,40.28
2023-03-03T11:33:05.906Z,36.88
2023-03-03T11:35:45.436Z,44.17
2023-03-03T11:38:28.640Z,42.85
2023-03-03T11:41:00.185Z,34.03
2023-03-03T11:43:37.218Z,34.85
2023-03-03T11:46:10.055Z,39.38
2023-03-03T11:48:47.336Z,46.40
2023-03-03T11:51:21.069Z,41.90
2023-03-03T11:53:59.489Z,33.10
2023-03-03T11:56:35.199Z,28.90
2023-03-03T11:59:30.223Z,32.38
2023-03-03T12:02:05.169Z,75.45
2023-03-03T12:04:38.381Z,36.55
2023-03-03T12:09:57.420Z,30.40
2023-03-03T12:12:32.354Z,43.15
2023-03-03T12:15:20.297Z,32.50
2023-03-03T12:18:14.676Z,28.25
2023-03-03T12:20:50.632Z,30.33
2023-03-03T12:23:39.288Z,30.13
2023-03-03T12:26:12.915Z,31.35
2023-03-03T12:28:49.847Z,39.72
2023-03-03T12:31:37.199Z,35.08
2023-03-03T12:34:15.001Z,38.20
2023-03-03T12:37:05.229Z,40.17
2023-03-03T12:39:46.184Z,34.15
2023-03-03T12:42:25.306Z,35.20
2023-03-03T12:45:06.052Z,29.67
2023-03-03T12:47:39.403Z,33.30
2023-03-03T12:50:28.400Z,33.45
2023-03-03T12:53:10.384Z,35.55
2023-03-03T12:55:48.659Z,33.40
2023-03-03T12:58:26.655Z,34.65
2023-03-03T13:01:05.536Z,30.77
2023-03-03T13:03:55.084Z,35.65
2023-03-03T13:06:30.815Z,37.83
2023-03-03T13:09:09.542Z,38.55
2023-03-03T13:11:48.586Z,33.72
2023-03-03T13:14:30.631Z,29.35
2023-03-03T13:17:16.361Z,36.15
2023-03-03T13:19:50.478Z,46.05
2023-03-03T13:22:40.603Z,41.88
2023-03-03T13:25:26.239Z,30.13
2023-03-03T13:28:01.830Z,31.23
2023-03-03T13:30:34.195Z,30.48
2023-03-03T13:33:09.525Z,17.77
2023-03-03T13:35:45.510Z,26.77
2023-03-03T13:38:21.757Z,27.38
2023-03-03T13:40:54.404Z,30.17
2023-03-03T13:43:27.652Z,33.22
2023-03-03T13:48:46.688Z,33.90
2023-03-03T13:51:27.781Z,38.42
2023-03-03T13:54:06.519Z,30.42
2023-03-03T13:56:48.565Z,39.33
2023-03-03T13:59:29.086Z,29.65
2023-03-03T14:02:02.549Z,26.33
2023-03-03T14:04:39.457Z,25.27
2023-03-03T14:07:15.496Z,25.58
2023-03-03T14:10:03.219Z,24.20
2023-03-03T14:12:43.574Z,28.98
2023-03-03T14:15:20.703Z,21.80
2023-03-03T14:18:00.934Z,29.75
2023-03-03T14:20:31.220Z,23.33
2023-03-03T14:23:02.854Z,21.25
2023-03-03T14:25:53.731Z,27.30
2023-03-03T14:28:23.320Z,31.20
2023-03-03T14:30:54.851Z,28.90
2023-03-03T14:33:30.747Z,25.23
2023-03-03T14:36:06.872Z,25.40
2023-03-03T14:38:41.433Z,25.33
2023-03-03T14:41:18.999Z,29.65
2023-03-03T14:43:57.694Z,23.80
2023-03-03T14:46:39.608Z,24.55
2023-03-03T14:49:14.552Z,22.05
2023-03-03T14:51:45.334Z,29.23
2023-03-03T14:54:23.508Z,25.73
2023-03-03T14:57:13.304Z,25.92
2023-03-03T14:59:41.709Z,27.40
2023-03-03T15:02:30.464Z,31.02
2023-03-03T15:05:22.067Z,30.02
2023-03-03T15:07:54.568Z,25.27
2023-03-03T15:10:34.827Z,24.00
2023-03-03T15:13:33.845Z,24.25
2023-03-03T15:16:11.328Z,21.58
2023-03-03T15:19:03.376Z,29.80
2023-03-03T15:21:34.067Z,27.73
2023-03-03T15:24:06.479Z,24.60
2023-03-03T15:26:44.738Z,21.90
2023-03-03T15:29:18.560Z,27.48
2023-03-03T15:31:56.825Z,24.98
2023-03-03T15:34:38.816Z,24.60
2023-03-03T15:37:30.662Z,22.85
2023-03-03T15:40:05.947Z,23.52
2023-03-03T15:42:39.260Z,19.95
2023-03-03T15:48:06.369Z,27.88
2023-03-03T15:50:48.381Z,26.00
2023-03-03T15:53:28.470Z,22.58
2023-03-03T15:56:08.869Z,24.10
2023-03-03T15:59:01.783Z,22.27
2023-03-03T16:01:34.959Z,22.77
2023-03-03T16:04:07.682Z,21.92
2023-03-03T16:06:46.372Z,20.75
2023-03-03T16:09:30.036Z,24.70
2023-03-03T16:12:07.870Z,23.25
2023-03-03T16:14:53.353Z,22.33
2023-03-03T16:17:34.782Z,23.90
2023-03-03T16:20:14.200Z,21.23
2023-03-03T16:23:04.837Z,22.58
2023-03-03T16:25:53.427Z,25.48
2023-03-03T16:28:28.513Z,22.80
2023-03-03T16:31:04.666Z,22.67
2023-03-03T16:33:43.824Z,23.73
2023-03-03T16:36:24.261Z,32.13
2023-03-03T16:38:59.212Z,24.70
2023-03-03T16:41:39.678Z,24.15
2023-03-03T16:44:19.976Z,22.90
2023-03-03T16:46:50.649Z,21.77
2023-03-03T16:49:26.173Z,25.35
2023-03-03T16:52:02.252Z,24.83
2023-03-03T16:54:35.822Z,24.85
2023-03-03T16:57:12.160Z,21.13
2023-03-03T17:00:03.988Z,27.20
2023-03-03T17:03:16.589Z,20.98
2023-03-03T17:05:53.422Z,23.70
2023-03-03T17:08:47.914Z,29.95
2023-03-03T17:11:22.563Z,24.83
2023-03-03T17:14:08.007Z,22.85
2023-03-03T17:16:52.474Z,27.58
2023-03-03T17:19:32.664Z,25.65
2023-03-03T17:22:13.757Z,26.45
2023-03-03T17:24:55.530Z,34.35
2023-03-03T17:27:34.215Z,27.95
2023-03-03T17:30:15.543Z,24.95
2023-03-03T17:33:22.032Z,26.27
2023-03-03T17:36:07.617Z,28.80
2023-03-03T17:38:49.274Z,22.15
2023-03-03T17:41:25.411Z,24.65
2023-03-03T17:44:03.029Z,24.20
2023-03-03T17:46:37.098Z,26.55
2023-03-03T17:49:47.712Z,24.67
2023-03-03T17:52:35.621Z,28.85
2023-03-03T17:55:35.135Z,27.98
2023-03-03T17:58:26.440Z,27.73
2023-03-03T18:01:05.914Z,21.50
2023-03-03T18:04:06.999Z,29.77
2023-03-03T18:07:05.957Z,24.83
2023-03-03T18:09:48.162Z,23.88
2023-03-03T18:12:27.967Z,23.02
2023-03-03T18:15:24.364Z,25.15
2023-03-03T18:18:05.809Z,28.35
2023-03-03T18:21:01.015Z,25.20
2023-03-03T18:23:42.719Z,28.88
2023-03-03T18:26:38.241Z,26.73
2023-03-03T18:29:24.929Z,28.48
2023-03-03T18:32:05.677Z,25.83
2023-03-03T18:34:38.977Z,28.23
2023-03-03T18:37:12.069Z,30.55
2023-03-03T18:39:43.406Z,28.92
2023-03-03T18:42:40.069Z,27.27
2023-03-03T18:45:43.765Z,24.05
2023-03-03T18:48:14.136Z,31.60
2023-03-03T18:50:43.844Z,25.33
2023-03-03T18:53:28.890Z,27.00
2023-03-03T18:55:58.831Z,29.33
2023-03-03T18:58:38.496Z,34.53
2023-03-03T19:01:40.038Z,35.60
2023-03-03T19:04:18.594Z,27.70
2023-03-03T19:07:11.850Z,26.80
2023-03-03T19:09:57.069Z,30.80
2023-03-03T19:12:46.664Z,26.52
2023-03-03T19:15:48.361Z,29.15
2023-03-03T19:18:19.375Z,28.55
2023-03-03T19:20:53.993Z,31.02
2023-03-03T19:23:23.911Z,29.92
2023-03-03T19:26:20.084Z,36.75
2023-03-03T19:28:57.342Z,29.17
2023-03-03T19:31:33.727Z,31.63
2023-03-03T19:34:08.558Z,30.77
2023-03-03T19:37:02.337Z,26.80
2023-03-03T19:45:03.064Z,33.67
2023-03-03T19:47:39.815Z,28.38
2023-03-03T19:50:18.739Z,28.73
2023-03-03T19:52:53.783Z,29.55
2023-03-03T19:55:41.486Z,27.90
2023-03-03T19:58:22.380Z,27.70
2023-03-03T20:00:56.834Z,33.50
2023-03-03T20:03:54.568Z,26.52
2023-03-03T20:06:38.755Z,28.85
2023-03-03T20:09:17.690Z,24.95
2023-03-03T20:12:09.533Z,28.67
2023-03-03T20:14:45.961Z,29.17
2023-03-03T20:17:36.347Z,31.92
2023-03-03T20:20:14.727Z,27.58
2023-03-03T20:22:53.995Z,25.98
2023-03-03T20:25:29.469Z,27.17
2023-03-03T20:28:06.592Z,32.78
2023-03-03T20:30:55.409Z,27.35
2023-03-03T20:33:39.593Z,27.83
2023-03-03T20:36:16.213Z,21.20
2023-03-03T20:38:54.080Z,20.95
2023-03-03T20:41:37.108Z,26.45
2023-03-03T20:44:18.358Z,23.40
2023-03-03T20:46:55.517Z,23.42
2023-03-03T20:49:39.154Z,22.58
2023-03-03T20:52:13.120Z,29.45
2023-03-03T20:54:47.058Z,30.55
2023-03-03T20:57:22.947Z,23.88
2023-03-03T21:00:00.509Z,25.77
2023-03-03T21:02:37.833Z,24.00
2023-03-03T21:05:15.567Z,23.30
2023-03-03T21:07:53.501Z,27.02
2023-03-03T21:10:25.196Z,25.27
2023-03-03T21:12:56.104Z,25.02
2023-03-03T21:15:27.868Z,22.40
2023-03-03T21:17:57.641Z,25.88
2023-03-03T21:20:29.466Z,25.73
2023-03-03T21:22:58.411Z,24.27
2023-03-03T21:25:52.110Z,26.60
2023-03-03T21:31:12.311Z,22.20
2023-03-03T21:33:46.263Z,23.77
2023-03-03T21:36:15.780Z,25.00
2023-03-03T21:38:43.745Z,22.83
2023-03-03T21:41:12.689Z,24.35
2023-03-03T21:43:44.543Z,26.98
2023-03-03T21:46:13.416Z,25.52
2023-03-03T21:48:42.752Z,23.23
2023-03-03T21:51:13.928Z,23.40
2023-03-03T21:53:42.858Z,26.42
2023-03-03T21:56:10.987Z,26.45
2023-03-03T21:58:38.923Z,24.92
2023-03-03T22:01:08.677Z,26.02
2023-03-03T22:03:39.035Z,26.20
2023-03-03T22:06:07.802Z,20.52
2023-03-03T22:08:35.851Z,27.33
2023-03-03T22:11:03.760Z,22.70
2023-03-03T22:13:31.625Z,24.83
2023-03-03T22:15:59.534Z,25.63
2023-03-03T22:18:29.067Z,22.98
2023-03-03T22:20:56.938Z,26.58
2023-03-03T22:23:24.835Z,28.10
2023-03-03T22:25:52.838Z,22.67
2023-03-03T22:28:20.724Z,21.48
2023-03-03T22:30:48.845Z,24.27
2023-03-03T22:33:16.817Z,26.17
2023-03-03T22:35:46.128Z,23.38
2023-03-03T22:38:14.059Z,26.02
2023-03-03T22:40:42.033Z,25.52
2023-03-03T22:43:11.140Z,27.17
2023-03-03T22:45:39.076Z,33.13
2023-03-03T22:48:07.745Z,32.05
2023-03-03T22:50:39.434Z,31.83
2023-03-03T22:53:08.837Z,33.72
2023-03-03T22:55:37.211Z,35.33
2023-03-03T22:58:07.492Z,40.33
2023-03-03T23:00:38.340Z,37.97
2023-03-03T23:03:06.608Z,44.30
2023-03-03T23:05:35.803Z,35.95
2023-03-03T23:08:04.300Z,38.58
2023-03-03T23:10:33.692Z,40.58
2023-03-03T23:13:01.929Z,43.42
2023-03-03T23:15:29.959Z,41.60
2023-03-03T23:17:57.882Z,46.03
2023-03-03T23:20:27.916Z,42.53
2023-03-03T23:22:56.617Z,45.75
2023-03-03T23:25:25.598Z,40.38
2023-03-03T23:27:55.153Z,46.15
2023-03-03T23:30:24.106Z,45.40
2023-03-03T23:32:52.091Z,39.83
2023-03-03T23:35:20.215Z,44.97
2023-03-03T23:37:48.395Z,44.05
2023-03-03T23:40:17.307Z,46.67
2023-03-03T23:42:45.919Z,43.50
2023-03-03T23:45:15.228Z,42.20
2023-03-03T23:47:43.136Z,44.10
2023-03-03T23:50:12.899Z,45.67
2023-03-03T23:52:41.196Z,38.58
2023-03-03T23:55:10.014Z,49.38
2023-03-03T23:57:37.969Z,40.70
